createdAt,value
2018-08-27T00:02:21.290Z,2.37
2018-08-27T00:04:53.319Z,2.67
2018-08-27T00:07:25.301Z,2.30
2018-08-27T00:09:57.407Z,2.30
2018-08-27T00:12:29.420Z,2.90
2018-08-27T00:15:01.489Z,2.60
2018-08-27T00:17:33.486Z,2.35
2018-08-27T00:20:05.595Z,2.87
2018-08-27T00:22:37.658Z,2.95
2018-08-27T00:25:09.674Z,3.20
2018-08-27T00:27:41.781Z,3.65
2018-08-27T00:30:13.855Z,2.85
2018-08-27T00:32:45.873Z,3.50
2018-08-27T00:35:17.916Z,3.00
2018-08-27T00:37:49.897Z,2.30
2018-08-27T00:40:21.923Z,3.02
2018-08-27T00:42:53.940Z,5.80
2018-08-27T00:45:25.998Z,2.72
2018-08-27T00:47:58.009Z,2.35
2018-08-27T00:50:30.096Z,2.40
2018-08-27T00:53:02.125Z,3.52
2018-08-27T00:55:34.147Z,3.08
2018-08-27T00:58:06.165Z,2.60
2018-08-27T01:00:38.187Z,2.87
2018-08-27T01:03:10.248Z,3.30
2018-08-27T01:05:42.334Z,3.27
2018-08-27T01:08:14.367Z,3.08
2018-08-27T01:10:46.376Z,3.00
2018-08-27T01:13:18.404Z,3.35
2018-08-27T01:15:50.470Z,3.17
2018-08-27T01:18:22.527Z,2.95
2018-08-27T01:20:54.567Z,2.70
2018-08-27T01:23:26.628Z,3.22
2018-08-27T01:25:58.740Z,4.25
2018-08-27T01:28:30.765Z,2.83
2018-08-27T01:31:02.796Z,3.00
2018-08-27T01:33:34.805Z,2.65
2018-08-27T01:36:06.866Z,3.47
2018-08-27T01:38:38.922Z,3.70
2018-08-27T01:41:10.924Z,4.67
2018-08-27T01:43:42.975Z,3.65
2018-08-27T01:46:15.034Z,4.67
2018-08-27T01:48:47.071Z,4.67
2018-08-27T01:51:19.095Z,3.65
2018-08-27T01:53:51.167Z,3.77
2018-08-27T01:56:23.216Z,4.10
2018-08-27T01:58:55.251Z,4.60
2018-08-27T02:01:27.311Z,3.85
2018-08-27T02:03:59.340Z,3.85
2018-08-27T02:06:37.486Z,4.50
2018-08-27T02:09:10.182Z,4.20
2018-08-27T02:11:42.223Z,4.03
2018-08-27T02:14:14.259Z,3.65
2018-08-27T02:16:46.286Z,3.72
2018-08-27T02:19:18.395Z,3.70
2018-08-27T02:21:50.640Z,4.35
2018-08-27T02:24:22.632Z,4.17
2018-08-27T02:26:54.723Z,3.47
2018-08-27T02:29:26.750Z,4.00
2018-08-27T02:31:58.770Z,3.65
2018-08-27T02:34:30.807Z,3.30
2018-08-27T02:37:02.842Z,3.75
2018-08-27T02:39:34.844Z,3.83
2018-08-27T02:42:06.874Z,3.00
2018-08-27T02:44:38.896Z,3.77
2018-08-27T02:47:10.971Z,4.05
2018-08-27T02:49:43.009Z,3.58
2018-08-27T02:52:15.041Z,3.52
2018-08-27T02:54:47.058Z,3.92
2018-08-27T02:57:19.133Z,2.90
2018-08-27T02:59:51.255Z,4.85
2018-08-27T03:02:23.274Z,4.10
2018-08-27T03:04:56.193Z,4.33
2018-08-27T03:07:28.281Z,4.67
2018-08-27T03:10:00.340Z,4.03
2018-08-27T03:12:32.389Z,4.25
2018-08-27T03:15:04.469Z,4.10
2018-08-27T03:17:36.513Z,4.92
2018-08-27T03:20:09.022Z,4.95
2018-08-27T03:22:41.055Z,4.03
2018-08-27T03:25:13.076Z,4.30
2018-08-27T03:27:45.216Z,4.25
2018-08-27T03:30:17.374Z,4.55
2018-08-27T03:32:49.420Z,4.25
2018-08-27T03:35:21.487Z,4.25
2018-08-27T03:37:53.583Z,4.60
2018-08-27T03:40:25.712Z,4.97
2018-08-27T03:42:57.768Z,4.35
2018-08-27T03:45:29.888Z,4.40
2018-08-27T03:48:01.932Z,4.62
2018-08-27T03:50:34.012Z,5.28
2018-08-27T03:53:06.048Z,5.15
2018-08-27T03:55:38.063Z,5.28
2018-08-27T03:58:10.122Z,5.15
2018-08-27T04:00:42.137Z,4.47
2018-08-27T04:03:14.163Z,5.55
2018-08-27T04:05:46.225Z,6.25
2018-08-27T04:08:18.279Z,5.40
2018-08-27T04:10:50.361Z,4.75
2018-08-27T04:13:22.410Z,6.62
2018-08-27T04:15:54.478Z,6.03
2018-08-27T04:18:26.531Z,6.30
2018-08-27T04:20:58.563Z,5.85
2018-08-27T04:23:30.643Z,5.65
2018-08-27T04:26:02.680Z,6.30
2018-08-27T04:28:34.764Z,5.45
2018-08-27T04:31:06.746Z,6.33
2018-08-27T04:33:38.790Z,5.45
2018-08-27T04:36:10.873Z,5.40
2018-08-27T04:38:42.899Z,5.97
2018-08-27T04:41:14.927Z,5.87
2018-08-27T04:43:46.995Z,5.25
2018-08-27T04:46:19.047Z,5.53
2018-08-27T04:48:51.158Z,6.10
2018-08-27T04:51:23.208Z,6.22
2018-08-27T04:53:55.247Z,5.60
2018-08-27T04:56:27.310Z,6.28
2018-08-27T04:59:05.286Z,6.15
2018-08-27T05:01:37.356Z,8.20
2018-08-27T05:04:09.424Z,5.67
2018-08-27T05:06:41.515Z,9.28
2018-08-27T05:09:13.576Z,5.75
2018-08-27T05:11:45.595Z,5.80
2018-08-27T05:14:17.631Z,6.17
2018-08-27T05:16:49.668Z,6.65
2018-08-27T05:19:21.720Z,9.93
2018-08-27T05:21:53.754Z,5.30
2018-08-27T05:24:25.798Z,6.50
2018-08-27T05:26:57.917Z,5.12
2018-08-27T05:29:29.985Z,6.47
2018-08-27T05:32:02.345Z,6.72
2018-08-27T05:34:34.404Z,7.05
2018-08-27T05:37:06.512Z,7.50
2018-08-27T05:39:38.539Z,6.17
2018-08-27T05:42:10.866Z,5.65
2018-08-27T05:44:42.988Z,4.57
2018-08-27T05:47:15.064Z,3.47
2018-08-27T05:49:47.104Z,4.43
2018-08-27T05:52:19.294Z,5.03
2018-08-27T05:54:51.280Z,7.07
2018-08-27T05:57:23.328Z,3.83
2018-08-27T05:59:55.354Z,4.13
2018-08-27T06:02:27.407Z,3.67
2018-08-27T06:04:59.511Z,3.37
2018-08-27T06:07:31.599Z,3.80
2018-08-27T06:10:04.017Z,3.70
2018-08-27T06:12:36.187Z,3.60
2018-08-27T06:15:09.052Z,3.73
2018-08-27T06:17:41.067Z,3.97
2018-08-27T06:20:13.097Z,3.83
2018-08-27T06:22:45.156Z,3.87
2018-08-27T06:25:17.194Z,4.00
2018-08-27T06:27:49.255Z,4.67
2018-08-27T06:30:21.351Z,3.53
2018-08-27T06:32:53.436Z,3.53
2018-08-27T06:35:25.503Z,3.23
2018-08-27T06:37:57.637Z,3.60
2018-08-27T06:40:29.631Z,3.33
2018-08-27T06:43:01.809Z,3.53
2018-08-27T06:45:33.905Z,3.87
2018-08-27T06:48:06.035Z,3.87
2018-08-27T06:50:38.128Z,4.37
2018-08-27T06:53:10.192Z,4.07
2018-08-27T06:55:42.272Z,4.97
2018-08-27T06:58:14.340Z,4.13
2018-08-27T07:00:46.402Z,3.13
2018-08-27T07:03:18.504Z,4.10
2018-08-27T07:05:50.538Z,3.73
2018-08-27T07:08:22.600Z,3.43
2018-08-27T07:10:54.768Z,3.50
2018-08-27T07:13:26.828Z,3.43
2018-08-27T07:15:58.931Z,4.77
2018-08-27T07:18:30.990Z,3.80
2018-08-27T07:24:00.862Z,3.50
2018-08-27T07:26:32.993Z,3.27
2018-08-27T07:29:05.163Z,3.90
2018-08-27T07:31:37.341Z,3.97
2018-08-27T07:34:09.504Z,4.10
2018-08-27T07:36:41.680Z,3.90
2018-08-27T07:39:13.748Z,3.30
2018-08-27T07:41:45.852Z,3.83
2018-08-27T07:44:17.976Z,3.73
2018-08-27T07:46:50.112Z,3.53
2018-08-27T07:49:22.210Z,4.00
2018-08-27T07:51:54.775Z,4.07
2018-08-27T07:54:26.843Z,3.53
2018-08-27T07:56:58.957Z,3.70
2018-08-27T07:59:31.036Z,3.90
2018-08-27T08:02:03.143Z,3.20
2018-08-27T08:04:35.276Z,4.53
2018-08-27T08:07:07.471Z,4.00
2018-08-27T08:09:39.501Z,3.90
2018-08-27T08:12:11.665Z,3.67
2018-08-27T08:14:43.788Z,4.40
2018-08-27T08:17:15.927Z,4.03
2018-08-27T08:19:48.084Z,4.03
2018-08-27T08:22:20.208Z,3.80
2018-08-27T08:24:52.301Z,3.60
2018-08-27T08:27:24.411Z,3.60
2018-08-27T08:29:56.654Z,3.90
2018-08-27T08:32:28.811Z,4.20
2018-08-27T08:35:00.949Z,3.57
2018-08-27T08:37:33.063Z,3.83
2018-08-27T08:40:05.253Z,3.23
2018-08-27T08:42:37.277Z,3.80
2018-08-27T08:45:09.433Z,3.63
2018-08-27T08:47:41.585Z,3.57
2018-08-27T08:50:13.740Z,3.80
2018-08-27T08:52:45.901Z,4.00
2018-08-27T08:55:18.049Z,3.60
2018-08-27T08:57:50.210Z,3.73
2018-08-27T09:00:22.288Z,3.63
2018-08-27T09:02:54.406Z,3.67
2018-08-27T09:05:26.512Z,3.93
2018-08-27T09:07:58.683Z,3.77
2018-08-27T09:10:30.744Z,3.60
2018-08-27T09:13:02.855Z,3.97
2018-08-27T09:15:35.033Z,3.50
2018-08-27T09:18:07.196Z,3.93
2018-08-27T09:20:39.300Z,3.60
2018-08-27T09:23:11.461Z,3.57
2018-08-27T09:25:43.554Z,4.43
2018-08-27T09:28:15.648Z,3.43
2018-08-27T09:30:47.732Z,3.70
2018-08-27T09:33:19.820Z,4.77
2018-08-27T09:35:51.983Z,3.83
2018-08-27T09:38:24.112Z,4.53
2018-08-27T09:40:56.263Z,3.30
2018-08-27T09:43:28.339Z,3.43
2018-08-27T09:46:00.511Z,2.80
2018-08-27T09:48:32.540Z,3.03
2018-08-27T09:51:04.709Z,2.70
2018-08-27T09:53:36.789Z,1.90
2018-08-27T09:56:08.967Z,2.97
2018-08-27T09:58:41.175Z,2.87
2018-08-27T10:02:19.816Z,4.50
2018-08-27T10:04:51.903Z,2.03
2018-08-27T10:07:24.036Z,2.63
2018-08-27T10:09:56.350Z,2.40
2018-08-27T10:12:28.473Z,2.40
2018-08-27T10:15:00.603Z,2.20
2018-08-27T10:17:32.647Z,2.70
2018-08-27T10:20:06.108Z,6.80
2018-08-27T10:22:38.360Z,2.73
2018-08-27T10:25:10.409Z,5.53
2018-08-27T10:27:42.503Z,1.90
2018-08-27T10:30:14.994Z,1.77
2018-08-27T10:32:47.165Z,2.23
2018-08-27T10:35:19.247Z,1.67
2018-08-27T10:37:51.312Z,1.60
2018-08-27T10:40:23.446Z,2.97
2018-08-27T10:42:55.641Z,2.13
2018-08-27T10:45:27.724Z,2.23
2018-08-27T10:47:59.958Z,2.10
2018-08-27T10:50:32.077Z,3.33
2018-08-27T10:53:04.405Z,1.93
2018-08-27T10:55:36.488Z,9.47
2018-08-27T10:58:08.928Z,2.73
2018-08-27T11:00:41.003Z,1.53
2018-08-27T11:03:13.213Z,1.83
2018-08-27T11:05:45.282Z,1.73
2018-08-27T11:09:20.914Z,2.03
2018-08-27T11:11:53.009Z,2.00
2018-08-27T11:14:25.087Z,1.50
2018-08-27T11:16:57.356Z,2.03
2018-08-27T11:19:29.467Z,1.67
2018-08-27T11:22:01.532Z,2.17
2018-08-27T11:24:33.623Z,1.50
2018-08-27T11:27:05.744Z,2.17
2018-08-27T11:29:37.895Z,1.93
2018-08-27T11:32:10.014Z,1.73
2018-08-27T11:34:42.214Z,1.63
2018-08-27T11:37:14.355Z,1.63
2018-08-27T11:39:46.476Z,2.43
2018-08-27T11:42:18.571Z,2.00
2018-08-27T11:44:50.717Z,1.70
2018-08-27T11:47:22.820Z,1.53
2018-08-27T11:49:54.955Z,1.90
2018-08-27T11:52:27.033Z,1.97
2018-08-27T11:54:59.513Z,1.80
2018-08-27T11:57:31.591Z,1.30
2018-08-27T12:00:03.864Z,2.40
2018-08-27T12:02:35.996Z,1.30
2018-08-27T12:05:08.161Z,1.83
2018-08-27T12:07:40.245Z,1.80
2018-08-27T12:10:12.357Z,3.57
2018-08-27T12:12:44.934Z,2.80
2018-08-27T12:15:17.035Z,1.50
2018-08-27T12:17:49.167Z,1.70
2018-08-27T12:20:21.304Z,2.17
2018-08-27T12:22:53.403Z,2.00
2018-08-27T12:25:25.466Z,2.43
2018-08-27T12:27:57.590Z,2.90
2018-08-27T12:30:29.687Z,1.80
2018-08-27T12:33:01.761Z,2.03
2018-08-27T12:35:33.917Z,3.07
2018-08-27T12:38:06.044Z,2.00
2018-08-27T12:40:39.057Z,2.10
2018-08-27T12:43:11.128Z,2.03
2018-08-27T12:45:43.224Z,1.70
2018-08-27T12:48:15.335Z,3.70
2018-08-27T12:50:47.469Z,3.13
2018-08-27T12:53:19.604Z,1.97
2018-08-27T12:55:52.041Z,4.43
2018-08-27T12:58:24.361Z,2.07
2018-08-27T13:00:56.459Z,2.60
2018-08-27T13:03:28.629Z,3.63
2018-08-27T13:06:00.735Z,2.23
2018-08-27T13:08:32.831Z,2.63
2018-08-27T13:11:04.976Z,2.50
2018-08-27T13:13:37.102Z,2.73
2018-08-27T13:16:09.232Z,2.77
2018-08-27T13:18:41.320Z,1.73
2018-08-27T13:21:19.018Z,3.03
2018-08-27T13:23:51.072Z,1.40
2018-08-27T13:26:23.215Z,2.37
2018-08-27T13:28:55.344Z,1.80
2018-08-27T13:31:27.528Z,2.00
2018-08-27T13:33:59.591Z,1.97
2018-08-27T13:36:31.687Z,2.20
2018-08-27T13:39:06.624Z,2.00
2018-08-27T13:41:38.817Z,2.20
2018-08-27T13:44:10.924Z,1.97
2018-08-27T13:46:44.149Z,1.77
2018-08-27T13:49:16.220Z,1.70
2018-08-27T13:51:49.452Z,2.20
2018-08-27T13:54:21.559Z,1.60
2018-08-27T13:56:53.660Z,1.90
2018-08-27T13:59:26.011Z,2.17
2018-08-27T14:01:58.250Z,1.87
2018-08-27T14:04:32.378Z,2.77
2018-08-27T14:07:04.432Z,1.93
2018-08-27T14:09:36.637Z,2.50
2018-08-27T14:12:08.780Z,1.90
2018-08-27T14:14:40.945Z,1.97
2018-08-27T14:17:13.071Z,1.97
2018-08-27T14:19:45.409Z,1.87
2018-08-27T14:22:18.537Z,2.30
2018-08-27T14:24:50.679Z,2.10
2018-08-27T14:27:22.854Z,2.07
2018-08-27T14:29:55.199Z,1.93
2018-08-27T14:32:27.241Z,1.73
2018-08-27T14:34:59.368Z,2.10
2018-08-27T14:37:31.605Z,2.23
2018-08-27T14:40:03.879Z,1.70
2018-08-27T14:42:36.085Z,1.40
2018-08-27T14:45:08.542Z,4.03
2018-08-27T14:47:40.651Z,2.53
2018-08-27T14:50:12.794Z,2.00
2018-08-27T14:52:44.995Z,1.70
2018-08-27T14:55:17.175Z,1.47
2018-08-27T14:57:49.316Z,2.53
2018-08-27T15:00:21.407Z,2.10
2018-08-27T15:02:53.482Z,3.93
2018-08-27T15:05:25.572Z,1.33
2018-08-27T15:07:57.684Z,2.50
2018-08-27T15:10:29.840Z,1.70
2018-08-27T15:13:01.957Z,2.33
2018-08-27T15:15:34.043Z,2.03
2018-08-27T15:18:06.116Z,2.10
2018-08-27T15:20:38.215Z,1.90
2018-08-27T15:23:10.302Z,2.63
2018-08-27T15:25:42.405Z,2.00
2018-08-27T15:28:14.520Z,1.90
2018-08-27T15:30:46.636Z,1.30
2018-08-27T15:33:18.790Z,1.40
2018-08-27T15:35:50.898Z,1.77
2018-08-27T15:38:23.068Z,1.87
2018-08-27T15:40:55.189Z,1.50
2018-08-27T15:43:27.289Z,4.00
2018-08-27T15:46:05.073Z,2.57
2018-08-27T15:48:37.186Z,1.70
2018-08-27T15:51:09.252Z,1.77
2018-08-27T15:53:41.360Z,1.90
2018-08-27T15:56:13.555Z,1.90
2018-08-27T15:58:45.681Z,2.03
2018-08-27T16:01:17.763Z,1.93
2018-08-27T16:03:49.835Z,1.90
2018-08-27T16:06:21.967Z,3.50
2018-08-27T16:08:54.060Z,1.53
2018-08-27T16:11:26.215Z,1.53
2018-08-27T16:13:58.241Z,1.63
2018-08-27T16:16:30.353Z,2.33
2018-08-27T16:19:02.464Z,1.50
2018-08-27T16:21:34.594Z,2.33
2018-08-27T16:24:06.776Z,2.47
2018-08-27T16:26:40.733Z,1.60
2018-08-27T16:29:12.837Z,1.67
2018-08-27T16:31:44.969Z,1.60
2018-08-27T16:34:17.045Z,1.77
2018-08-27T16:36:49.138Z,2.63
2018-08-27T16:39:21.295Z,2.13
2018-08-27T16:41:53.372Z,1.70
2018-08-27T16:44:25.517Z,1.60
2018-08-27T16:46:57.645Z,1.80
2018-08-27T16:49:29.721Z,1.70
2018-08-27T16:52:01.837Z,1.73
2018-08-27T16:54:33.947Z,4.20
2018-08-27T16:57:06.179Z,1.60
2018-08-27T16:59:38.315Z,2.53
2018-08-27T17:02:10.576Z,2.23
2018-08-27T17:04:42.755Z,1.80
2018-08-27T17:07:15.793Z,2.43
2018-08-27T17:09:47.912Z,1.87
2018-08-27T17:12:20.011Z,3.30
2018-08-27T17:14:52.137Z,3.50
2018-08-27T17:17:24.299Z,2.30
2018-08-27T17:19:56.814Z,5.60
2018-08-27T17:22:28.954Z,2.40
2018-08-27T17:25:01.351Z,2.30
2018-08-27T17:27:33.633Z,1.80
2018-08-27T17:30:06.304Z,1.73
2018-08-27T17:32:38.505Z,2.10
2018-08-27T17:35:10.563Z,2.37
2018-08-27T17:37:42.860Z,2.50
2018-08-27T17:40:14.943Z,2.30
2018-08-27T17:42:47.075Z,2.13
2018-08-27T17:45:19.368Z,4.47
2018-08-27T17:47:55.385Z,3.83
2018-08-27T17:50:27.494Z,2.13
2018-08-27T17:52:59.612Z,2.10
2018-08-27T17:55:31.717Z,2.57
2018-08-27T17:58:03.943Z,1.90
2018-08-27T18:00:36.038Z,2.57
2018-08-27T18:03:08.179Z,3.13
2018-08-27T18:05:40.457Z,4.10
2018-08-27T18:08:12.544Z,2.20
2018-08-27T18:10:44.711Z,2.67
2018-08-27T18:13:16.870Z,3.60
2018-08-27T18:15:49.003Z,2.20
2018-08-27T18:18:21.141Z,2.77
2018-08-27T18:20:53.314Z,3.97
2018-08-27T18:23:25.480Z,1.70
2018-08-27T18:25:57.600Z,4.20
2018-08-27T18:28:29.778Z,3.17
2018-08-27T18:31:01.902Z,2.10
2018-08-27T18:33:34.057Z,1.90
2018-08-27T18:36:06.038Z,1.70
2018-08-27T18:38:38.141Z,2.33
2018-08-27T18:41:10.274Z,1.97
2018-08-27T18:43:42.409Z,1.77
2018-08-27T18:46:14.515Z,1.70
2018-08-27T18:48:46.653Z,1.87
2018-08-27T18:51:18.699Z,2.20
2018-08-27T18:53:50.814Z,2.27
2018-08-27T18:56:23.013Z,4.03
2018-08-27T18:58:55.280Z,1.80
2018-08-27T19:01:43.947Z,2.80
2018-08-27T19:04:16.081Z,2.23
2018-08-27T19:06:48.254Z,2.30
2018-08-27T19:09:20.455Z,1.83
2018-08-27T19:11:52.593Z,4.13
2018-08-27T19:14:24.722Z,2.57
2018-08-27T19:16:56.901Z,2.67
2018-08-27T19:19:29.012Z,3.27
2018-08-27T19:22:01.170Z,2.70
2018-08-27T19:24:33.362Z,5.80
2018-08-27T19:27:05.597Z,2.67
2018-08-27T19:29:37.655Z,2.03
2018-08-27T19:32:09.762Z,2.53
2018-08-27T19:34:48.612Z,2.57
2018-08-27T19:37:20.852Z,2.57
2018-08-27T19:39:52.858Z,2.43
2018-08-27T19:42:24.984Z,4.63
2018-08-27T19:44:57.163Z,2.50
2018-08-27T19:47:29.293Z,1.70
2018-08-27T19:50:01.451Z,3.70
2018-08-27T19:52:33.582Z,1.83
2018-08-27T19:55:05.740Z,2.20
2018-08-27T19:57:37.925Z,2.13
2018-08-27T20:00:09.937Z,2.87
2018-08-27T20:02:42.069Z,8.63
2018-08-27T20:05:14.184Z,2.40
2018-08-27T20:07:46.273Z,2.87
2018-08-27T20:10:18.408Z,2.23
2018-08-27T20:12:50.499Z,3.30
2018-08-27T20:15:22.611Z,2.90
2018-08-27T20:17:54.753Z,2.23
2018-08-27T20:20:26.937Z,1.90
2018-08-27T20:22:59.044Z,3.23
2018-08-27T20:25:31.153Z,5.40
2018-08-27T20:28:03.502Z,2.10
2018-08-27T20:30:36.353Z,3.03
2018-08-27T20:33:09.172Z,1.93
2018-08-27T20:35:41.393Z,1.97
2018-08-27T20:38:13.499Z,2.13
2018-08-27T20:40:45.686Z,2.73
2018-08-27T20:43:17.858Z,3.50
2018-08-27T20:45:50.162Z,2.53
2018-08-27T20:48:22.235Z,2.03
2018-08-27T20:50:54.427Z,2.23
2018-08-27T20:53:26.580Z,3.33
2018-08-27T20:55:59.093Z,1.83
2018-08-27T20:58:31.300Z,2.20
2018-08-27T21:01:03.387Z,2.67
2018-08-27T21:03:35.570Z,2.33
2018-08-27T21:06:07.733Z,4.27
2018-08-27T21:08:39.840Z,2.20
2018-08-27T21:11:12.037Z,4.50
2018-08-27T21:13:44.189Z,1.73
2018-08-27T21:16:16.295Z,2.40
2018-08-27T21:18:48.408Z,2.43
2018-08-27T21:21:20.528Z,3.17
2018-08-27T21:23:52.787Z,2.20
2018-08-27T21:26:24.982Z,2.20
2018-08-27T21:28:57.137Z,2.33
2018-08-27T21:31:29.293Z,2.10
2018-08-27T21:34:01.351Z,3.27
2018-08-27T21:36:33.435Z,3.27
2018-08-27T21:39:05.556Z,1.93
2018-08-27T21:41:37.628Z,1.83
2018-08-27T21:44:09.696Z,2.90
2018-08-27T21:46:41.926Z,2.70
2018-08-27T21:49:13.960Z,4.50
2018-08-27T21:51:46.112Z,2.37
2018-08-27T21:54:18.296Z,4.27
2018-08-27T21:56:50.380Z,1.70
2018-08-27T21:59:22.543Z,2.13
2018-08-27T22:01:54.560Z,1.80
2018-08-27T22:04:26.580Z,2.57
2018-08-27T22:06:59.412Z,2.27
2018-08-27T22:09:31.449Z,1.87
2018-08-27T22:12:03.840Z,1.93
2018-08-27T22:14:35.850Z,4.57
2018-08-27T22:17:08.620Z,2.70
2018-08-27T22:19:40.660Z,2.67
2018-08-27T22:22:12.764Z,3.20
2018-08-27T22:24:44.787Z,1.60
2018-08-27T22:27:16.904Z,2.23
2018-08-27T22:29:48.960Z,1.97
2018-08-27T22:32:20.990Z,2.10
2018-08-27T22:34:53.031Z,2.67
2018-08-27T22:37:25.079Z,3.10
2018-08-27T22:39:57.144Z,2.10
2018-08-27T22:42:29.172Z,2.77
2018-08-27T22:45:01.196Z,2.97
2018-08-27T22:47:33.278Z,4.50
2018-08-27T22:50:05.473Z,3.03
2018-08-27T22:52:37.567Z,2.37
2018-08-27T22:55:09.624Z,2.77
2018-08-27T22:57:41.757Z,2.03
2018-08-27T23:00:13.815Z,2.73
2018-08-27T23:02:51.641Z,1.63
2018-08-27T23:05:23.729Z,2.63
2018-08-27T23:07:55.813Z,2.03
2018-08-27T23:10:28.884Z,1.53
2018-08-27T23:13:00.940Z,2.70
2018-08-27T23:15:32.987Z,1.37
2018-08-27T23:18:05.108Z,2.50
2018-08-27T23:20:37.161Z,1.70
2018-08-27T23:23:09.192Z,2.13
2018-08-27T23:25:41.245Z,1.73
2018-08-27T23:28:13.274Z,2.73
2018-08-27T23:30:45.364Z,1.87
2018-08-27T23:33:17.403Z,2.73
2018-08-27T23:35:49.569Z,2.00
2018-08-27T23:38:21.705Z,1.77
2018-08-27T23:40:53.865Z,2.63
2018-08-27T23:43:26.053Z,2.03
2018-08-27T23:45:58.126Z,1.73
2018-08-27T23:48:30.221Z,2.10
2018-08-27T23:51:02.368Z,1.63
2018-08-27T23:53:34.697Z,1.40
2018-08-27T23:56:06.826Z,1.43
2018-08-27T23:58:38.883Z,1.80
